Home   Weather   Romania   Bacău   Past weeks
Flag for Romania

Past Weather in Bacău, Romania — Yesterday and Last 2 Weeks

Currently: 43 °F. Clear. (Weather station: Bacau Airport, Romania). See more current weather

Past Weather in Bacău — Graph

°F

Bacău Temperature Yesterday

Maximum temperature yesterday: 70 °F (at 5:30 pm)
Minimum temperature yesterday: 32 °F (at 6:30 am)
Average temperature yesterday: 52 °F

High & Low Weather Summary for the Past Weeks

 TemperatureHumidityPressure
High70 °F (Apr 12, 5:30 pm)100% (Apr 7, 8:30 am)30.48 "Hg (Apr 7, 8:30 am)
Low27 °F (Apr 8, 7:00 am)20% (Apr 11, 4:00 pm)29.47 "Hg (Apr 6, 4:00 pm)
Average45 °F61%30.06 "Hg
* Reported Mar 29 3:00 am — Apr 13 3:30 am, Bacău. Weather by CustomWeather, © 2021

Note: Actual official high and low records may vary slightly from our data, if they occured in-between our weather recording intervals... More about our weather records

Bacău Weather History for the Previous 24 Hours

Scroll right to see more
 ConditionsComfort  
Time TempWeatherWind HumidityBarometerVisibility
3:30 am
Tue, Apr 13
46 °FClear.5 mph57%30.04 "Hg10 mi
2:30 am46 °FClear.5 mph53%30.04 "Hg10 mi
2:00 am45 °FClear.5 mph61%30.07 "Hg10 mi
1:30 am48 °FClear.3 mph50%30.07 "Hg10 mi
1:00 am50 °FClear.5 mph47%30.07 "Hg10 mi
12:30 am48 °FClear.3 mph54%30.07 "Hg10 mi
12:00 am50 °FClear.3 mph50%30.07 "Hg10 mi
11:30 pm
Mon, Apr 12
50 °FClear.3 mph50%30.07 "Hg10 mi
11:00 pm52 °FClear.6 mph47%30.07 "Hg10 mi
10:30 pm55 °FClear.6 mph41%30.07 "Hg10 mi
10:00 pm52 °FPassing clouds.3 mph47%30.07 "HgN/A
9:30 pm54 °FClear.8 mph47%30.07 "Hg10 mi
9:00 pm55 °FClear.8 mph44%30.07 "Hg10 mi
8:30 pm57 °FClear.7 mph41%30.07 "Hg10 mi
8:00 pm61 °FClear.8 mph34%30.04 "Hg10 mi
7:30 pm63 °FSunny.9 mph34%30.04 "Hg10 mi
7:00 pm66 °FSunny.7 mph32%30.04 "Hg10 mi
6:30 pm68 °FSunny.2 mph21%30.04 "Hg10 mi
6:00 pm70 °FSunny.2 mph21%30.04 "Hg10 mi
5:30 pm70 °FSunny.2 mph20%30.04 "Hg10 mi
5:00 pm68 °FPassing clouds.5 mph24%30.04 "HgN/A
4:30 pm68 °FPassing clouds.3 mph21%30.07 "HgN/A
4:00 pm68 °FSunny.3 mph21%30.07 "Hg10 mi
3:30 pm68 °FPassing clouds.6 mph24%30.07 "HgN/A
3:00 pm68 °FSunny.2 mph26%30.09 "Hg10 mi
2:30 pm66 °FPassing clouds.6 mph28%30.09 "HgN/A
2:00 pm64 °FPassing clouds.6 mph28%30.09 "HgN/A
1:30 pm64 °FPassing clouds.7 mph30%30.12 "HgN/A
1:00 pm63 °FPassing clouds.8 mph30%30.12 "HgN/A
12:30 pm63 °FPassing clouds.9 mph27%30.12 "HgN/A
12:00 pm61 °FPassing clouds.10 mph27%30.15 "HgN/A
11:30 am59 °FPassing clouds.7 mph34%30.15 "HgN/A
11:00 am57 °FSunny.2 mph39%30.18 "Hg10 mi
10:00 am48 °FSunny.1 mph54%30.18 "Hg10 mi
9:30 am46 °FSunny.1 mph57%30.18 "Hg10 mi
9:00 am45 °FSunny.2 mph61%30.18 "Hg10 mi
8:30 am43 °FPassing clouds.3 mph66%30.18 "HgN/A
8:00 am36 °FSunny.3 mph81%30.18 "Hg10 mi
7:30 am36 °FSunny.1 mph75%30.18 "Hg10 mi
7:00 am34 °FSunny.5 mph75%30.18 "Hg10 mi
6:30 am32 °FClear.2 mph75%30.18 "Hg10 mi
6:00 am34 °FClear.2 mph70%30.18 "Hg10 mi
5:30 am34 °FClear.6 mph75%30.18 "Hg10 mi
5:00 am36 °FClear.2 mph70%30.21 "Hg10 mi
Weather by CustomWeather, © 2021

See weather overview